Погода Волинна неделю

Западнопоморское воеводство, Польша

18 - 24 июля
  • 18июля
    Сегодня
    +14°
    +23°
    Облачно с прояснениями
    ВремяПогодаТемператураВлажностьДавлениеВетер, м/сВероятность осадков
    02:00Ясно и безоблачно+16°C84 %765 мм5.4 м/с7 %
    05:00Небольшая облачность+16°C86 %766 мм5.4 м/с12 %
    08:00Облачно с прояснениями+18°C83 %767 мм5.0 м/с8 %
    11:00Облачно с прояснениями+20°C73 %767 мм4.4 м/с9 %
    14:00Облачно с прояснениями+21°C63 %768 мм4.0 м/с2 %
    17:00Облачно с прояснениями+22°C68 %767 мм3.9 м/с2 %
    20:00Облачно с прояснениями+20°C76 %767 мм2.5 м/с2 %
    23:00Ясно и безоблачно+16°C89 %767 мм1.8 м/с2 %
  • 19июля
    Пятница
    +13°
    +24°
    Ясно и безоблачно
    ВремяПогодаТемператураВлажностьДавлениеВетер, м/сВероятность осадков
    02:00Ясно и безоблачно+15°C88 %768 мм1.6 м/с2 %
    05:00Ясно и безоблачно+15°C92 %767 мм2.1 м/с2 %
    08:00Ясно и безоблачно+19°C83 %767 мм2.3 м/с2 %
    11:00Ясно и безоблачно+22°C72 %767 мм1.8 м/с2 %
    14:00Ясно и безоблачно+23°C67 %766 мм2.3 м/с2 %
    17:00Практически безоблачно+23°C64 %765 мм3.3 м/с2 %
    20:00Ясно и безоблачно+21°C71 %765 мм2.9 м/с2 %
    23:00Практически безоблачно+16°C85 %764 мм2.3 м/с2 %
  • 20июля
    Суббота
    +16°
    +26°
    Ясно и безоблачно
    ВремяПогодаТемператураВлажностьДавлениеВетер, м/сВероятность осадков
    02:00Ясно и безоблачно+15°C86 %764 мм1.5 м/с2 %
    05:00Ясно и безоблачно+13°C94 %763 мм1.7 м/с2 %
    08:00Ясно и безоблачно+18°C73 %762 мм2.3 м/с2 %
    11:00Ясно и безоблачно+23°C59 %762 мм1.6 м/с2 %
    14:00Ясно и безоблачно+24°C54 %761 мм1.2 м/с2 %
    17:00Ясно и безоблачно+25°C57 %760 мм3.3 м/с2 %
    20:00Ясно и безоблачно+22°C69 %759 мм3.8 м/с2 %
    23:00Ясно и безоблачно+18°C75 %759 мм4.0 м/с2 %
  • 21июля
    Воскресенье
    +17°
    +31°
    Ясно и безоблачно
    ВремяПогодаТемператураВлажностьДавлениеВетер, м/сВероятность осадков
    02:00Ясно и безоблачно+17°C77 %758 мм3.2 м/с2 %
    05:00Ясно и безоблачно+17°C79 %757 мм3.0 м/с2 %
    08:00Ясно и безоблачно+21°C74 %757 мм2.6 м/с2 %
    11:00Ясно и безоблачно+26°C57 %757 мм2.7 м/с2 %
    14:00Ясно и безоблачно+28°C44 %756 мм3.0 м/с3 %
    17:00Ясно и безоблачно+30°C45 %755 мм4.0 м/с9 %
    20:00Ясно и безоблачно+26°C64 %755 мм3.2 м/с12 %
    23:00Небольшая облачность+21°C71 %756 мм4.9 м/с13 %
  • 22июля
    Понедельник
    +15°
    +23°
    Пасмурно, дожди с грозами
    ВремяПогодаТемператураВлажностьДавлениеВетер, м/сВероятность осадков
    02:00Практически безоблачно+19°C68 %756 мм4.6 м/с37 %
    05:00Небольшая облачность+18°C70 %756 мм4.6 м/с50 %
    08:00Облачно с прояснениями, небольшой дождь+20°C74 %757 мм3.8 м/с56 %
    11:00Облачно с прояснениями, небольшой дождь+21°C80 %757 мм3.3 м/с60 %
    14:00Пасмурно, дожди с грозами+22°C80 %758 мм3.6 м/с52 %
    17:00Пасмурно, дожди с грозами+22°C86 %759 мм5.2 м/с50 %
    20:00Практически безоблачно+21°C81 %759 мм3.3 м/с39 %
    23:00Ясно и безоблачно+18°C76 %760 мм3.6 м/с19 %
Мы используем cookies
Соглашаюсь